sensor_id;sensor_type;location;lat;lon;timestamp;temperature;humidity
9808;DHT22;4943;52.550;13.462;2023-06-26T00:01:23;23.80;99.90
9808;DHT22;4943;52.550;13.462;2023-06-26T00:03:52;23.80;99.90
9808;DHT22;4943;52.550;13.462;2023-06-26T00:06:21;23.70;99.90
9808;DHT22;4943;52.550;13.462;2023-06-26T00:08:51;23.70;99.90
9808;DHT22;4943;52.550;13.462;2023-06-26T00:11:19;23.60;99.90
9808;DHT22;4943;52.550;13.462;2023-06-26T00:13:48;23.60;99.90
9808;DHT22;4943;52.550;13.462;2023-06-26T00:16:16;23.60;99.90
9808;DHT22;4943;52.550;13.462;2023-06-26T00:18:44;23.60;99.90
9808;DHT22;4943;52.550;13.462;2023-06-26T00:21:13;23.60;99.90
9808;DHT22;4943;52.550;13.462;2023-06-26T00:23:42;23.60;99.90
9808;DHT22;4943;52.550;13.462;2023-06-26T00:26:11;23.60;99.90
9808;DHT22;4943;52.550;13.462;2023-06-26T00:28:39;23.60;99.90
9808;DHT22;4943;52.550;13.462;2023-06-26T00:31:07;23.60;99.90
9808;DHT22;4943;52.550;13.462;2023-06-26T00:33:35;23.60;99.90
9808;DHT22;4943;52.550;13.462;2023-06-26T00:36:03;23.60;99.90
9808;DHT22;4943;52.550;13.462;2023-06-26T00:38:31;23.60;99.90
9808;DHT22;4943;52.550;13.462;2023-06-26T00:41:01;23.60;99.90
9808;DHT22;4943;52.550;13.462;2023-06-26T00:43:29;23.60;99.90
9808;DHT22;4943;52.550;13.462;2023-06-26T00:45:57;23.50;99.90
9808;DHT22;4943;52.550;13.462;2023-06-26T00:48:25;23.50;99.90
9808;DHT22;4943;52.550;13.462;2023-06-26T00:50:53;23.50;99.90
9808;DHT22;4943;52.550;13.462;2023-06-26T00:53:21;23.50;99.90
9808;DHT22;4943;52.550;13.462;2023-06-26T00:55:50;23.50;99.90
9808;DHT22;4943;52.550;13.462;2023-06-26T00:58:20;23.50;99.90
9808;DHT22;4943;52.550;13.462;2023-06-26T01:00:49;23.50;99.90
9808;DHT22;4943;52.550;13.462;2023-06-26T01:03:17;23.50;99.90
9808;DHT22;4943;52.550;13.462;2023-06-26T01:05:46;23.50;99.90
9808;DHT22;4943;52.550;13.462;2023-06-26T01:08:16;23.50;99.90
9808;DHT22;4943;52.550;13.462;2023-06-26T01:10:45;23.60;99.90
9808;DHT22;4943;52.550;13.462;2023-06-26T01:13:14;23.60;99.90
9808;DHT22;4943;52.550;13.462;2023-06-26T01:15:44;23.60;99.90
9808;DHT22;4943;52.550;13.462;2023-06-26T01:18:13;23.50;99.90
9808;DHT22;4943;52.550;13.462;2023-06-26T01:20:42;23.60;99.90
9808;DHT22;4943;52.550;13.462;2023-06-26T01:23:17;23.60;99.90
9808;DHT22;4943;52.550;13.462;2023-06-26T01:28:30;23.50;99.90
9808;DHT22;4943;52.550;13.462;2023-06-26T01:30:59;23.50;99.90
9808;DHT22;4943;52.550;13.462;2023-06-26T01:33:28;23.50;99.90
9808;DHT22;4943;52.550;13.462;2023-06-26T01:35:56;23.50;99.90
9808;DHT22;4943;52.550;13.462;2023-06-26T01:38:24;23.50;99.90
9808;DHT22;4943;52.550;13.462;2023-06-26T01:40:52;23.50;99.90
9808;DHT22;4943;52.550;13.462;2023-06-26T01:43:26;23.50;99.90
9808;DHT22;4943;52.550;13.462;2023-06-26T01:45:59;23.50;99.90
9808;DHT22;4943;52.550;13.462;2023-06-26T01:48:32;23.50;99.90
9808;DHT22;4943;52.550;13.462;2023-06-26T01:51:02;23.40;99.90
9808;DHT22;4943;52.550;13.462;2023-06-26T01:53:36;23.40;99.90
9808;DHT22;4943;52.550;13.462;2023-06-26T01:56:08;23.40;99.90
9808;DHT22;4943;52.550;13.462;2023-06-26T01:58:42;23.40;99.90
9808;DHT22;4943;52.550;13.462;2023-06-26T02:01:12;23.40;99.90
9808;DHT22;4943;52.550;13.462;2023-06-26T02:03:40;23.40;99.90
9808;DHT22;4943;52.550;13.462;2023-06-26T02:06:09;23.40;99.90
9808;DHT22;4943;52.550;13.462;2023-06-26T02:08:37;23.40;99.90
9808;DHT22;4943;52.550;13.462;2023-06-26T02:11:05;23.30;99.90
9808;DHT22;4943;52.550;13.462;2023-06-26T02:13:33;23.30;99.90
9808;DHT22;4943;52.550;13.462;2023-06-26T02:16:01;23.30;99.90
9808;DHT22;4943;52.550;13.462;2023-06-26T02:18:30;23.30;99.90
9808;DHT22;4943;52.550;13.462;2023-06-26T02:20:58;23.30;99.90
9808;DHT22;4943;52.550;13.462;2023-06-26T02:23:26;23.30;99.90
9808;DHT22;4943;52.550;13.462;2023-06-26T02:25:54;23.30;99.90
9808;DHT22;4943;52.550;13.462;2023-06-26T02:28:22;23.30;99.90
9808;DHT22;4943;52.550;13.462;2023-06-26T02:30:50;23.30;99.90
9808;DHT22;4943;52.550;13.462;2023-06-26T02:33:19;23.30;99.90
9808;DHT22;4943;52.550;13.462;2023-06-26T02:35:48;23.30;99.90
9808;DHT22;4943;52.550;13.462;2023-06-26T02:38:17;23.30;99.90
9808;DHT22;4943;52.550;13.462;2023-06-26T02:40:45;23.30;99.90
9808;DHT22;4943;52.550;13.462;2023-06-26T02:43:13;23.30;99.90
9808;DHT22;4943;52.550;13.462;2023-06-26T02:45:41;23.30;99.90
9808;DHT22;4943;52.550;13.462;2023-06-26T02:48:09;23.40;99.90
9808;DHT22;4943;52.550;13.462;2023-06-26T02:50:37;23.30;99.90
9808;DHT22;4943;52.550;13.462;2023-06-26T02:53:07;23.30;99.90
9808;DHT22;4943;52.550;13.462;2023-06-26T02:55:35;23.30;99.90
9808;DHT22;4943;52.550;13.462;2023-06-26T02:58:03;23.30;99.90
9808;DHT22;4943;52.550;13.462;2023-06-26T03:00:31;23.30;99.90
9808;DHT22;4943;52.550;13.462;2023-06-26T03:03:00;23.20;99.90
9808;DHT22;4943;52.550;13.462;2023-06-26T03:05:28;23.20;99.90
9808;DHT22;4943;52.550;13.462;2023-06-26T03:07:56;23.20;99.90
9808;DHT22;4943;52.550;13.462;2023-06-26T03:10:25;23.10;99.90
9808;DHT22;4943;52.550;13.462;2023-06-26T03:12:53;23.10;99.90
9808;DHT22;4943;52.550;13.462;2023-06-26T03:15:21;23.00;99.90
9808;DHT22;4943;52.550;13.462;2023-06-26T03:17:49;23.00;99.90
9808;DHT22;4943;52.550;13.462;2023-06-26T03:20:17;23.00;99.90
9808;DHT22;4943;52.550;13.462;2023-06-26T03:22:45;22.90;99.90
9808;DHT22;4943;52.550;13.462;2023-06-26T03:25:13;22.90;99.90
9808;DHT22;4943;52.550;13.462;2023-06-26T03:27:43;22.90;99.90
9808;DHT22;4943;52.550;13.462;2023-06-26T03:30:12;22.90;99.90
9808;DHT22;4943;52.550;13.462;2023-06-26T03:32:40;22.90;99.90
9808;DHT22;4943;52.550;13.462;2023-06-26T03:35:08;22.90;99.90
9808;DHT22;4943;52.550;13.462;2023-06-26T03:37:36;23.00;99.90
9808;DHT22;4943;52.550;13.462;2023-06-26T03:40:05;23.00;99.90
9808;DHT22;4943;52.550;13.462;2023-06-26T03:42:33;23.00;99.90
9808;DHT22;4943;52.550;13.462;2023-06-26T03:45:02;23.00;99.90
9808;DHT22;4943;52.550;13.462;2023-06-26T03:47:31;23.00;99.90
9808;DHT22;4943;52.550;13.462;2023-06-26T03:49:59;23.00;99.90
9808;DHT22;4943;52.550;13.462;2023-06-26T03:52:27;23.00;99.90
9808;DHT22;4943;52.550;13.462;2023-06-26T03:54:57;23.00;99.90
9808;DHT22;4943;52.550;13.462;2023-06-26T03:57:25;23.10;99.90
9808;DHT22;4943;52.550;13.462;2023-06-26T03:59:53;23.10;99.90
9808;DHT22;4943;52.550;13.462;2023-06-26T04:02:23;23.10;99.90
9808;DHT22;4943;52.550;13.462;2023-06-26T04:04:51;23.20;99.90
9808;DHT22;4943;52.550;13.462;2023-06-26T04:07:19;23.30;99.90
9808;DHT22;4943;52.550;13.462;2023-06-26T04:09:47;23.40;99.90
9808;DHT22;4943;52.550;13.462;2023-06-26T04:12:15;23.50;99.90
9808;DHT22;4943;52.550;13.462;2023-06-26T04:14:43;23.70;99.90
9808;DHT22;4943;52.550;13.462;2023-06-26T04:17:11;23.90;99.90
9808;DHT22;4943;52.550;13.462;2023-06-26T04:19:41;24.20;99.90
9808;DHT22;4943;52.550;13.462;2023-06-26T04:22:09;24.40;99.90
9808;DHT22;4943;52.550;13.462;2023-06-26T04:24:37;24.60;99.90
9808;DHT22;4943;52.550;13.462;2023-06-26T04:27:05;24.80;99.90
9808;DHT22;4943;52.550;13.462;2023-06-26T04:29:33;24.80;99.90
9808;DHT22;4943;52.550;13.462;2023-06-26T04:32:02;24.80;99.90
9808;DHT22;4943;52.550;13.462;2023-06-26T04:34:30;24.80;99.90
9808;DHT22;4943;52.550;13.462;2023-06-26T04:37:00;24.90;99.90
9808;DHT22;4943;52.550;13.462;2023-06-26T04:39:30;24.90;99.90
9808;DHT22;4943;52.550;13.462;2023-06-26T04:41:59;24.90;99.90
9808;DHT22;4943;52.550;13.462;2023-06-26T04:44:27;24.90;99.90
9808;DHT22;4943;52.550;13.462;2023-06-26T04:46:55;24.90;99.90
9808;DHT22;4943;52.550;13.462;2023-06-26T04:49:23;24.90;99.90
9808;DHT22;4943;52.550;13.462;2023-06-26T04:51:51;24.90;99.90
9808;DHT22;4943;52.550;13.462;2023-06-26T04:54:21;24.90;99.90
9808;DHT22;4943;52.550;13.462;2023-06-26T04:56:49;24.90;99.90
9808;DHT22;4943;52.550;13.462;2023-06-26T04:59:17;24.90;99.90
9808;DHT22;4943;52.550;13.462;2023-06-26T05:01:46;24.90;99.90
9808;DHT22;4943;52.550;13.462;2023-06-26T05:04:15;24.90;99.90
9808;DHT22;4943;52.550;13.462;2023-06-26T05:06:44;25.00;99.90
9808;DHT22;4943;52.550;13.462;2023-06-26T05:09:12;25.00;99.90
9808;DHT22;4943;52.550;13.462;2023-06-26T05:11:41;25.10;99.90
9808;DHT22;4943;52.550;13.462;2023-06-26T05:14:09;25.10;99.90
9808;DHT22;4943;52.550;13.462;2023-06-26T05:16:39;25.20;99.90
9808;DHT22;4943;52.550;13.462;2023-06-26T05:19:07;25.30;99.90
9808;DHT22;4943;52.550;13.462;2023-06-26T05:21:36;25.50;99.90
9808;DHT22;4943;52.550;13.462;2023-06-26T05:24:04;25.60;99.90
9808;DHT22;4943;52.550;13.462;2023-06-26T05:26:33;25.70;99.90
9808;DHT22;4943;52.550;13.462;2023-06-26T05:29:03;25.80;99.90
9808;DHT22;4943;52.550;13.462;2023-06-26T05:31:33;26.00;99.90
9808;DHT22;4943;52.550;13.462;2023-06-26T05:34:03;26.00;99.90
9808;DHT22;4943;52.550;13.462;2023-06-26T05:36:33;26.10;99.90
9808;DHT22;4943;52.550;13.462;2023-06-26T05:39:01;26.30;99.90
9808;DHT22;4943;52.550;13.462;2023-06-26T05:41:30;26.30;99.90
9808;DHT22;4943;52.550;13.462;2023-06-26T05:43:58;26.40;99.90
9808;DHT22;4943;52.550;13.462;2023-06-26T05:46:28;26.50;99.90
9808;DHT22;4943;52.550;13.462;2023-06-26T05:48:56;26.50;99.90
9808;DHT22;4943;52.550;13.462;2023-06-26T05:51:25;26.40;99.90
9808;DHT22;4943;52.550;13.462;2023-06-26T05:53:53;26.40;99.90
9808;DHT22;4943;52.550;13.462;2023-06-26T05:56:22;26.30;99.90
9808;DHT22;4943;52.550;13.462;2023-06-26T05:58:50;26.30;99.90
9808;DHT22;4943;52.550;13.462;2023-06-26T06:01:19;26.20;99.90
9808;DHT22;4943;52.550;13.462;2023-06-26T06:03:48;26.10;99.90
9808;DHT22;4943;52.550;13.462;2023-06-26T06:06:17;26.10;99.90
9808;DHT22;4943;52.550;13.462;2023-06-26T06:08:45;26.10;99.90
9808;DHT22;4943;52.550;13.462;2023-06-26T06:11:15;26.10;99.90
9808;DHT22;4943;52.550;13.462;2023-06-26T06:13:43;26.10;99.90
9808;DHT22;4943;52.550;13.462;2023-06-26T06:16:11;26.00;99.90
9808;DHT22;4943;52.550;13.462;2023-06-26T06:18:39;26.00;99.90
9808;DHT22;4943;52.550;13.462;2023-06-26T06:21:08;26.00;99.90
9808;DHT22;4943;52.550;13.462;2023-06-26T06:23:36;26.00;99.90
9808;DHT22;4943;52.550;13.462;2023-06-26T06:26:05;26.00;99.90
9808;DHT22;4943;52.550;13.462;2023-06-26T06:28:34;26.00;99.90
9808;DHT22;4943;52.550;13.462;2023-06-26T06:31:02;25.90;99.90
9808;DHT22;4943;52.550;13.462;2023-06-26T06:33:30;26.00;99.90
9808;DHT22;4943;52.550;13.462;2023-06-26T06:35:58;26.00;99.90
9808;DHT22;4943;52.550;13.462;2023-06-26T06:38:27;26.00;99.90
9808;DHT22;4943;52.550;13.462;2023-06-26T06:40:55;26.10;99.90
9808;DHT22;4943;52.550;13.462;2023-06-26T06:43:23;26.10;99.90
9808;DHT22;4943;52.550;13.462;2023-06-26T06:45:51;26.10;99.90
9808;DHT22;4943;52.550;13.462;2023-06-26T06:48:19;26.10;99.90
9808;DHT22;4943;52.550;13.462;2023-06-26T06:50:48;26.20;99.90
9808;DHT22;4943;52.550;13.462;2023-06-26T06:53:16;26.20;99.90
9808;DHT22;4943;52.550;13.462;2023-06-26T06:55:45;26.20;99.90
9808;DHT22;4943;52.550;13.462;2023-06-26T06:58:13;26.30;99.90
9808;DHT22;4943;52.550;13.462;2023-06-26T07:00:43;26.30;99.90
9808;DHT22;4943;52.550;13.462;2023-06-26T07:03:11;26.30;99.90
9808;DHT22;4943;52.550;13.462;2023-06-26T07:05:41;26.40;99.90
9808;DHT22;4943;52.550;13.462;2023-06-26T07:08:09;26.40;99.90
9808;DHT22;4943;52.550;13.462;2023-06-26T07:10:37;26.40;99.90
9808;DHT22;4943;52.550;13.462;2023-06-26T07:13:08;26.50;99.90
9808;DHT22;4943;52.550;13.462;2023-06-26T07:15:36;26.50;99.90
9808;DHT22;4943;52.550;13.462;2023-06-26T07:18:04;26.50;99.90
9808;DHT22;4943;52.550;13.462;2023-06-26T07:20:32;26.60;99.90
9808;DHT22;4943;52.550;13.462;2023-06-26T07:23:00;26.60;99.90
9808;DHT22;4943;52.550;13.462;2023-06-26T07:25:28;26.60;99.90
9808;DHT22;4943;52.550;13.462;2023-06-26T07:27:56;26.60;99.90
9808;DHT22;4943;52.550;13.462;2023-06-26T07:30:26;26.70;99.90
9808;DHT22;4943;52.550;13.462;2023-06-26T07:32:54;26.70;99.90
9808;DHT22;4943;52.550;13.462;2023-06-26T07:35:22;26.80;99.90
9808;DHT22;4943;52.550;13.462;2023-06-26T07:37:51;26.80;99.90
9808;DHT22;4943;52.550;13.462;2023-06-26T07:40:19;26.90;99.90
9808;DHT22;4943;52.550;13.462;2023-06-26T07:42:47;26.90;99.90
9808;DHT22;4943;52.550;13.462;2023-06-26T07:45:17;26.90;99.90
9808;DHT22;4943;52.550;13.462;2023-06-26T07:47:46;26.90;99.90
9808;DHT22;4943;52.550;13.462;2023-06-26T07:50:14;27.00;99.90
9808;DHT22;4943;52.550;13.462;2023-06-26T07:52:46;27.00;99.90
9808;DHT22;4943;52.550;13.462;2023-06-26T07:55:14;27.00;99.90
9808;DHT22;4943;52.550;13.462;2023-06-26T07:57:42;27.10;99.90
9808;DHT22;4943;52.550;13.462;2023-06-26T08:00:12;27.10;99.90
9808;DHT22;4943;52.550;13.462;2023-06-26T08:02:41;27.20;99.90
9808;DHT22;4943;52.550;13.462;2023-06-26T08:05:10;27.20;99.90
9808;DHT22;4943;52.550;13.462;2023-06-26T08:07:38;27.20;99.90
9808;DHT22;4943;52.550;13.462;2023-06-26T08:10:07;27.20;99.90
9808;DHT22;4943;52.550;13.462;2023-06-26T08:12:35;27.30;99.90
9808;DHT22;4943;52.550;13.462;2023-06-26T08:15:07;27.30;99.90
9808;DHT22;4943;52.550;13.462;2023-06-26T08:17:37;27.30;99.90
9808;DHT22;4943;52.550;13.462;2023-06-26T08:20:06;27.40;99.90
9808;DHT22;4943;52.550;13.462;2023-06-26T08:22:37;27.40;99.90
9808;DHT22;4943;52.550;13.462;2023-06-26T08:25:05;27.40;99.90
9808;DHT22;4943;52.550;13.462;2023-06-26T08:27:34;27.40;99.90
9808;DHT22;4943;52.550;13.462;2023-06-26T08:30:02;27.50;99.90
9808;DHT22;4943;52.550;13.462;2023-06-26T08:32:31;27.60;99.90
9808;DHT22;4943;52.550;13.462;2023-06-26T08:35:00;27.60;99.90
9808;DHT22;4943;52.550;13.462;2023-06-26T08:37:28;27.70;99.90
9808;DHT22;4943;52.550;13.462;2023-06-26T08:40:00;27.70;99.90
9808;DHT22;4943;52.550;13.462;2023-06-26T08:42:29;27.80;99.60
9808;DHT22;4943;52.550;13.462;2023-06-26T08:44:57;27.80;99.40
9808;DHT22;4943;52.550;13.462;2023-06-26T08:47:30;27.80;99.10
9808;DHT22;4943;52.550;13.462;2023-06-26T08:50:05;27.80;99.00
9808;DHT22;4943;52.550;13.462;2023-06-26T08:52:36;27.90;98.70
9808;DHT22;4943;52.550;13.462;2023-06-26T08:55:10;27.90;98.50
9808;DHT22;4943;52.550;13.462;2023-06-26T08:57:38;27.90;98.30
9808;DHT22;4943;52.550;13.462;2023-06-26T09:00:08;28.00;98.20
9808;DHT22;4943;52.550;13.462;2023-06-26T09:02:37;28.00;98.00
9808;DHT22;4943;52.550;13.462;2023-06-26T09:05:08;28.00;97.60
9808;DHT22;4943;52.550;13.462;2023-06-26T09:07:36;28.10;97.70
9808;DHT22;4943;52.550;13.462;2023-06-26T09:10:05;28.10;97.70
9808;DHT22;4943;52.550;13.462;2023-06-26T09:12:35;28.10;97.30
9808;DHT22;4943;52.550;13.462;2023-06-26T09:15:04;28.20;97.30
9808;DHT22;4943;52.550;13.462;2023-06-26T09:17:38;28.20;97.30
9808;DHT22;4943;52.550;13.462;2023-06-26T09:20:06;28.20;97.20
9808;DHT22;4943;52.550;13.462;2023-06-26T09:22:37;28.30;97.00
9808;DHT22;4943;52.550;13.462;2023-06-26T09:25:06;28.30;96.70
9808;DHT22;4943;52.550;13.462;2023-06-26T09:27:36;28.30;96.80
9808;DHT22;4943;52.550;13.462;2023-06-26T09:30:06;28.40;96.70
9808;DHT22;4943;52.550;13.462;2023-06-26T09:32:34;28.40;96.40
9808;DHT22;4943;52.550;13.462;2023-06-26T09:35:04;28.50;96.30
9808;DHT22;4943;52.550;13.462;2023-06-26T09:37:32;28.50;96.40
9808;DHT22;4943;52.550;13.462;2023-06-26T09:40:02;28.50;96.20
9808;DHT22;4943;52.550;13.462;2023-06-26T09:42:31;28.60;96.20
9808;DHT22;4943;52.550;13.462;2023-06-26T09:45:01;28.60;96.20
9808;DHT22;4943;52.550;13.462;2023-06-26T09:47:31;28.70;96.20
9808;DHT22;4943;52.550;13.462;2023-06-26T09:49:59;28.70;95.70
9808;DHT22;4943;52.550;13.462;2023-06-26T09:52:27;28.70;95.70
9808;DHT22;4943;52.550;13.462;2023-06-26T09:55:07;28.70;95.60
9808;DHT22;4943;52.550;13.462;2023-06-26T09:57:36;28.80;95.60
9808;DHT22;4943;52.550;13.462;2023-06-26T10:00:06;28.80;95.30
9808;DHT22;4943;52.550;13.462;2023-06-26T10:02:36;28.80;95.10
9808;DHT22;4943;52.550;13.462;2023-06-26T10:05:05;28.80;95.10
9808;DHT22;4943;52.550;13.462;2023-06-26T10:07:33;28.90;94.80
9808;DHT22;4943;52.550;13.462;2023-06-26T10:10:03;28.90;94.90
9808;DHT22;4943;52.550;13.462;2023-06-26T10:12:32;28.90;94.90
9808;DHT22;4943;52.550;13.462;2023-06-26T10:15:02;29.00;94.90
9808;DHT22;4943;52.550;13.462;2023-06-26T10:17:34;29.00;94.70
9808;DHT22;4943;52.550;13.462;2023-06-26T10:20:06;29.00;94.70
9808;DHT22;4943;52.550;13.462;2023-06-26T10:22:39;29.10;94.80
9808;DHT22;4943;52.550;13.462;2023-06-26T10:25:10;29.10;94.70
9808;DHT22;4943;52.550;13.462;2023-06-26T10:27:43;29.20;94.50
9808;DHT22;4943;52.550;13.462;2023-06-26T10:30:14;29.20;94.40
9808;DHT22;4943;52.550;13.462;2023-06-26T10:32:45;29.20;94.10
9808;DHT22;4943;52.550;13.462;2023-06-26T10:35:14;29.20;93.70
9808;DHT22;4943;52.550;13.462;2023-06-26T10:37:45;29.30;94.10
9808;DHT22;4943;52.550;13.462;2023-06-26T10:40:20;29.30;94.20
9808;DHT22;4943;52.550;13.462;2023-06-26T10:42:49;29.40;94.20
9808;DHT22;4943;52.550;13.462;2023-06-26T10:45:19;29.50;94.20
9808;DHT22;4943;52.550;13.462;2023-06-26T10:47:52;29.50;94.20
9808;DHT22;4943;52.550;13.462;2023-06-26T10:50:23;29.60;94.00
9808;DHT22;4943;52.550;13.462;2023-06-26T10:53:15;29.60;94.10
9808;DHT22;4943;52.550;13.462;2023-06-26T10:55:50;29.70;94.30
9808;DHT22;4943;52.550;13.462;2023-06-26T10:58:30;29.70;93.90
9808;DHT22;4943;52.550;13.462;2023-06-26T11:01:18;29.80;94.20
9808;DHT22;4943;52.550;13.462;2023-06-26T11:03:49;29.90;93.90
9808;DHT22;4943;52.550;13.462;2023-06-26T11:06:19;29.90;94.00
9808;DHT22;4943;52.550;13.462;2023-06-26T11:08:48;29.90;93.30
9808;DHT22;4943;52.550;13.462;2023-06-26T11:11:17;30.00;93.00
9808;DHT22;4943;52.550;13.462;2023-06-26T11:13:46;30.10;93.20
9808;DHT22;4943;52.550;13.462;2023-06-26T11:16:14;30.10;93.00
9808;DHT22;4943;52.550;13.462;2023-06-26T11:18:43;30.20;92.80
9808;DHT22;4943;52.550;13.462;2023-06-26T11:21:13;30.20;92.90
9808;DHT22;4943;52.550;13.462;2023-06-26T11:23:43;30.30;93.00
9808;DHT22;4943;52.550;13.462;2023-06-26T11:26:14;30.40;93.00
9808;DHT22;4943;52.550;13.462;2023-06-26T11:28:49;30.50;93.20
9808;DHT22;4943;52.550;13.462;2023-06-26T11:31:27;30.60;93.30
9808;DHT22;4943;52.550;13.462;2023-06-26T11:33:59;30.80;93.10
9808;DHT22;4943;52.550;13.462;2023-06-26T11:36:30;30.90;93.00
9808;DHT22;4943;52.550;13.462;2023-06-26T11:39:00;31.00;92.60
9808;DHT22;4943;52.550;13.462;2023-06-26T11:41:31;31.10;92.50
9808;DHT22;4943;52.550;13.462;2023-06-26T11:44:00;31.10;92.10
9808;DHT22;4943;52.550;13.462;2023-06-26T11:46:31;31.10;91.90
9808;DHT22;4943;52.550;13.462;2023-06-26T11:49:00;31.20;91.90
9808;DHT22;4943;52.550;13.462;2023-06-26T11:51:31;31.20;91.90
9808;DHT22;4943;52.550;13.462;2023-06-26T11:54:02;31.30;91.90
9808;DHT22;4943;52.550;13.462;2023-06-26T11:56:31;31.40;92.00
9808;DHT22;4943;52.550;13.462;2023-06-26T11:59:01;31.50;92.00
9808;DHT22;4943;52.550;13.462;2023-06-26T12:01:34;31.70;92.60
9808;DHT22;4943;52.550;13.462;2023-06-26T12:04:03;31.80;92.10
9808;DHT22;4943;52.550;13.462;2023-06-26T12:06:35;32.00;91.90
9808;DHT22;4943;52.550;13.462;2023-06-26T12:09:05;32.10;91.70
9808;DHT22;4943;52.550;13.462;2023-06-26T12:11:38;32.20;91.70
9808;DHT22;4943;52.550;13.462;2023-06-26T12:14:07;32.10;91.30
9808;DHT22;4943;52.550;13.462;2023-06-26T12:16:36;32.20;91.30
9808;DHT22;4943;52.550;13.462;2023-06-26T12:19:05;32.20;90.90
9808;DHT22;4943;52.550;13.462;2023-06-26T12:21:47;32.10;90.80
9808;DHT22;4943;52.550;13.462;2023-06-26T12:24:16;32.10;90.70
9808;DHT22;4943;52.550;13.462;2023-06-26T12:26:46;32.10;90.70
9808;DHT22;4943;52.550;13.462;2023-06-26T12:29:18;32.10;90.80
9808;DHT22;4943;52.550;13.462;2023-06-26T12:31:49;32.10;90.90
9808;DHT22;4943;52.550;13.462;2023-06-26T12:34:19;32.10;90.70
9808;DHT22;4943;52.550;13.462;2023-06-26T12:36:50;32.00;90.20
9808;DHT22;4943;52.550;13.462;2023-06-26T12:39:20;32.00;90.50
9808;DHT22;4943;52.550;13.462;2023-06-26T12:41:49;32.00;90.90
9808;DHT22;4943;52.550;13.462;2023-06-26T12:44:20;32.00;90.60
9808;DHT22;4943;52.550;13.462;2023-06-26T12:46:53;32.10;90.50
9808;DHT22;4943;52.550;13.462;2023-06-26T12:49:29;32.30;89.40
9808;DHT22;4943;52.550;13.462;2023-06-26T12:52:00;32.30;89.20
9808;DHT22;4943;52.550;13.462;2023-06-26T12:54:28;32.40;89.10
9808;DHT22;4943;52.550;13.462;2023-06-26T12:56:56;32.30;88.70
9808;DHT22;4943;52.550;13.462;2023-06-26T12:59:25;32.40;89.00
9808;DHT22;4943;52.550;13.462;2023-06-26T13:01:53;32.40;88.90
9808;DHT22;4943;52.550;13.462;2023-06-26T13:04:21;32.60;88.30
9808;DHT22;4943;52.550;13.462;2023-06-26T13:06:49;32.60;88.50
9808;DHT22;4943;52.550;13.462;2023-06-26T13:09:19;32.70;88.20
9808;DHT22;4943;52.550;13.462;2023-06-26T13:11:47;32.80;88.30
9808;DHT22;4943;52.550;13.462;2023-06-26T13:14:15;32.80;88.30
9808;DHT22;4943;52.550;13.462;2023-06-26T13:16:44;32.80;88.40
9808;DHT22;4943;52.550;13.462;2023-06-26T13:19:11;32.90;88.30
9808;DHT22;4943;52.550;13.462;2023-06-26T13:21:40;32.90;88.40
9808;DHT22;4943;52.550;13.462;2023-06-26T13:24:08;32.90;88.40
9808;DHT22;4943;52.550;13.462;2023-06-26T13:26:38;32.80;88.30
9808;DHT22;4943;52.550;13.462;2023-06-26T13:29:06;32.80;88.10
9808;DHT22;4943;52.550;13.462;2023-06-26T13:31:34;32.60;87.90
9808;DHT22;4943;52.550;13.462;2023-06-26T13:34:03;32.50;87.60
9808;DHT22;4943;52.550;13.462;2023-06-26T13:36:32;32.40;87.60
9808;DHT22;4943;52.550;13.462;2023-06-26T13:39:01;32.20;87.50
9808;DHT22;4943;52.550;13.462;2023-06-26T13:41:30;32.10;87.60
9808;DHT22;4943;52.550;13.462;2023-06-26T13:43:59;32.00;88.80
9808;DHT22;4943;52.550;13.462;2023-06-26T13:46:44;31.90;88.30
9808;DHT22;4943;52.550;13.462;2023-06-26T13:49:12;31.80;88.30
9808;DHT22;4943;52.550;13.462;2023-06-26T13:51:40;31.70;89.30
9808;DHT22;4943;52.550;13.462;2023-06-26T13:54:13;31.70;88.70
9808;DHT22;4943;52.550;13.462;2023-06-26T13:56:41;31.70;88.70
9808;DHT22;4943;52.550;13.462;2023-06-26T13:59:11;31.70;88.60
9808;DHT22;4943;52.550;13.462;2023-06-26T14:01:39;31.60;88.60
9808;DHT22;4943;52.550;13.462;2023-06-26T14:04:09;31.60;88.80
9808;DHT22;4943;52.550;13.462;2023-06-26T14:06:37;31.50;89.00
9808;DHT22;4943;52.550;13.462;2023-06-26T14:09:05;31.40;89.10
9808;DHT22;4943;52.550;13.462;2023-06-26T14:11:34;31.30;89.80
9808;DHT22;4943;52.550;13.462;2023-06-26T14:14:02;31.20;89.30
9808;DHT22;4943;52.550;13.462;2023-06-26T14:16:32;31.10;89.50
9808;DHT22;4943;52.550;13.462;2023-06-26T14:19:00;31.00;89.80
9808;DHT22;4943;52.550;13.462;2023-06-26T14:21:29;30.90;90.00
9808;DHT22;4943;52.550;13.462;2023-06-26T14:23:57;30.80;90.00
9808;DHT22;4943;52.550;13.462;2023-06-26T14:26:25;30.70;90.00
9808;DHT22;4943;52.550;13.462;2023-06-26T14:28:56;30.60;90.10
9808;DHT22;4943;52.550;13.462;2023-06-26T14:31:24;30.40;92.00
9808;DHT22;4943;52.550;13.462;2023-06-26T14:33:54;29.90;95.90
9808;DHT22;4943;52.550;13.462;2023-06-26T14:36:22;29.20;99.90
9808;DHT22;4943;52.550;13.462;2023-06-26T14:38:50;28.10;99.90
9808;DHT22;4943;52.550;13.462;2023-06-26T14:41:18;27.10;99.90
9808;DHT22;4943;52.550;13.462;2023-06-26T14:43:47;26.30;99.90
9808;DHT22;4943;52.550;13.462;2023-06-26T14:46:15;25.80;99.90
9808;DHT22;4943;52.550;13.462;2023-06-26T14:48:44;25.40;99.90
9808;DHT22;4943;52.550;13.462;2023-06-26T14:51:14;25.10;99.90
9808;DHT22;4943;52.550;13.462;2023-06-26T14:53:42;24.70;99.90
9808;DHT22;4943;52.550;13.462;2023-06-26T14:56:11;24.30;99.90
9808;DHT22;4943;52.550;13.462;2023-06-26T14:58:39;24.20;99.90
9808;DHT22;4943;52.550;13.462;2023-06-26T15:01:07;24.00;99.90
9808;DHT22;4943;52.550;13.462;2023-06-26T15:03:36;23.80;99.90
9808;DHT22;4943;52.550;13.462;2023-06-26T15:06:05;23.70;99.90
9808;DHT22;4943;52.550;13.462;2023-06-26T15:08:34;23.60;99.90
9808;DHT22;4943;52.550;13.462;2023-06-26T15:11:02;23.40;99.90
9808;DHT22;4943;52.550;13.462;2023-06-26T15:13:31;23.30;99.90
9808;DHT22;4943;52.550;13.462;2023-06-26T15:15:59;23.30;99.90
9808;DHT22;4943;52.550;13.462;2023-06-26T15:18:27;23.20;99.90
9808;DHT22;4943;52.550;13.462;2023-06-26T15:20:55;23.10;99.90
9808;DHT22;4943;52.550;13.462;2023-06-26T15:23:23;22.90;99.90
9808;DHT22;4943;52.550;13.462;2023-06-26T15:25:52;22.70;99.90
9808;DHT22;4943;52.550;13.462;2023-06-26T15:28:20;22.60;99.90
9808;DHT22;4943;52.550;13.462;2023-06-26T15:30:48;22.50;99.90
9808;DHT22;4943;52.550;13.462;2023-06-26T15:33:16;22.50;99.90
9808;DHT22;4943;52.550;13.462;2023-06-26T15:35:45;22.40;99.90
9808;DHT22;4943;52.550;13.462;2023-06-26T15:38:13;22.50;99.90
9808;DHT22;4943;52.550;13.462;2023-06-26T15:40:41;22.70;99.90
9808;DHT22;4943;52.550;13.462;2023-06-26T15:43:10;22.80;99.90
9808;DHT22;4943;52.550;13.462;2023-06-26T15:45:38;22.80;99.90
9808;DHT22;4943;52.550;13.462;2023-06-26T15:48:07;22.90;99.90
9808;DHT22;4943;52.550;13.462;2023-06-26T15:50:35;22.90;99.90
9808;DHT22;4943;52.550;13.462;2023-06-26T15:53:05;22.90;99.90
9808;DHT22;4943;52.550;13.462;2023-06-26T15:55:33;23.00;99.90
9808;DHT22;4943;52.550;13.462;2023-06-26T15:58:01;23.00;99.90
9808;DHT22;4943;52.550;13.462;2023-06-26T16:00:30;23.10;99.90